sensor_id;sensor_type;location;lat;lon;timestamp;temperature;humidity
50947;DHT22;36955;47.416;7.716;2022-07-21T00:00:53;18.60;99.90
50947;DHT22;36955;47.416;7.716;2022-07-21T00:03:19;18.60;99.90
50947;DHT22;36955;47.416;7.716;2022-07-21T00:05:46;18.60;99.90
50947;DHT22;36955;47.416;7.716;2022-07-21T00:08:12;18.60;99.90
50947;DHT22;36955;47.416;7.716;2022-07-21T00:10:38;18.70;99.90
50947;DHT22;36955;47.416;7.716;2022-07-21T00:13:04;18.60;99.90
50947;DHT22;36955;47.416;7.716;2022-07-21T00:15:30;18.70;99.90
50947;DHT22;36955;47.416;7.716;2022-07-21T00:17:57;18.70;99.90
50947;DHT22;36955;47.416;7.716;2022-07-21T00:20:24;18.70;99.90
50947;DHT22;36955;47.416;7.716;2022-07-21T00:22:50;18.70;99.90
50947;DHT22;36955;47.416;7.716;2022-07-21T00:25:16;18.70;99.90
50947;DHT22;36955;47.416;7.716;2022-07-21T00:27:42;18.60;99.90
50947;DHT22;36955;47.416;7.716;2022-07-21T00:30:09;18.70;99.90
50947;DHT22;36955;47.416;7.716;2022-07-21T00:32:36;18.70;99.90
50947;DHT22;36955;47.416;7.716;2022-07-21T00:35:04;18.70;99.90
50947;DHT22;36955;47.416;7.716;2022-07-21T00:37:31;18.80;99.90
50947;DHT22;36955;47.416;7.716;2022-07-21T00:39:57;18.90;99.90
50947;DHT22;36955;47.416;7.716;2022-07-21T00:42:28;19.00;99.90
50947;DHT22;36955;47.416;7.716;2022-07-21T00:44:55;19.00;99.90
50947;DHT22;36955;47.416;7.716;2022-07-21T00:47:29;19.00;99.90
50947;DHT22;36955;47.416;7.716;2022-07-21T00:49:56;19.00;99.90
50947;DHT22;36955;47.416;7.716;2022-07-21T00:52:23;19.10;99.90
50947;DHT22;36955;47.416;7.716;2022-07-21T00:54:49;19.10;99.90
50947;DHT22;36955;47.416;7.716;2022-07-21T00:57:16;19.10;99.90
50947;DHT22;36955;47.416;7.716;2022-07-21T00:59:42;19.10;99.90
50947;DHT22;36955;47.416;7.716;2022-07-21T01:02:09;19.10;99.90
50947;DHT22;36955;47.416;7.716;2022-07-21T01:04:36;19.10;99.90
50947;DHT22;36955;47.416;7.716;2022-07-21T01:07:03;19.00;99.90
50947;DHT22;36955;47.416;7.716;2022-07-21T01:09:30;19.10;99.90
50947;DHT22;36955;47.416;7.716;2022-07-21T01:11:57;19.10;99.90
50947;DHT22;36955;47.416;7.716;2022-07-21T01:14:24;19.10;99.90
50947;DHT22;36955;47.416;7.716;2022-07-21T01:16:50;19.10;99.90
50947;DHT22;36955;47.416;7.716;2022-07-21T01:19:17;19.10;99.90
50947;DHT22;36955;47.416;7.716;2022-07-21T01:21:45;19.10;99.90
50947;DHT22;36955;47.416;7.716;2022-07-21T01:24:12;19.10;99.90
50947;DHT22;36955;47.416;7.716;2022-07-21T01:26:47;19.10;99.90
50947;DHT22;36955;47.416;7.716;2022-07-21T01:29:13;19.10;99.90
50947;DHT22;36955;47.416;7.716;2022-07-21T01:31:41;19.10;99.90
50947;DHT22;36955;47.416;7.716;2022-07-21T01:34:08;19.10;99.90
50947;DHT22;36955;47.416;7.716;2022-07-21T01:36:34;19.10;99.90
50947;DHT22;36955;47.416;7.716;2022-07-21T01:39:01;19.10;99.90
50947;DHT22;36955;47.416;7.716;2022-07-21T01:41:27;19.10;99.90
50947;DHT22;36955;47.416;7.716;2022-07-21T01:43:53;19.20;99.90
50947;DHT22;36955;47.416;7.716;2022-07-21T01:46:19;19.20;99.90
50947;DHT22;36955;47.416;7.716;2022-07-21T01:48:45;19.10;99.90
50947;DHT22;36955;47.416;7.716;2022-07-21T01:51:12;19.10;99.90
50947;DHT22;36955;47.416;7.716;2022-07-21T01:53:38;19.00;99.90
50947;DHT22;36955;47.416;7.716;2022-07-21T01:56:05;19.00;99.90
50947;DHT22;36955;47.416;7.716;2022-07-21T01:58:31;18.90;99.90
50947;DHT22;36955;47.416;7.716;2022-07-21T02:00:58;18.80;99.90
50947;DHT22;36955;47.416;7.716;2022-07-21T02:03:24;18.90;99.90
50947;DHT22;36955;47.416;7.716;2022-07-21T02:05:50;18.90;99.90
50947;DHT22;36955;47.416;7.716;2022-07-21T02:08:16;18.90;99.90
50947;DHT22;36955;47.416;7.716;2022-07-21T02:10:42;18.80;99.90
50947;DHT22;36955;47.416;7.716;2022-07-21T02:13:09;18.90;99.90
50947;DHT22;36955;47.416;7.716;2022-07-21T02:15:35;18.80;99.90
50947;DHT22;36955;47.416;7.716;2022-07-21T02:18:01;18.80;99.90
50947;DHT22;36955;47.416;7.716;2022-07-21T02:20:27;18.80;99.90
50947;DHT22;36955;47.416;7.716;2022-07-21T02:22:53;18.80;99.90
50947;DHT22;36955;47.416;7.716;2022-07-21T02:25:19;18.80;99.90
50947;DHT22;36955;47.416;7.716;2022-07-21T02:27:46;18.90;99.90
50947;DHT22;36955;47.416;7.716;2022-07-21T02:30:13;18.90;99.90
50947;DHT22;36955;47.416;7.716;2022-07-21T02:32:39;18.90;99.90
50947;DHT22;36955;47.416;7.716;2022-07-21T02:35:06;18.90;99.90
50947;DHT22;36955;47.416;7.716;2022-07-21T02:37:32;18.90;99.90
50947;DHT22;36955;47.416;7.716;2022-07-21T02:39:58;18.80;99.90
50947;DHT22;36955;47.416;7.716;2022-07-21T02:42:24;18.80;99.90
50947;DHT22;36955;47.416;7.716;2022-07-21T02:44:50;18.70;99.90
50947;DHT22;36955;47.416;7.716;2022-07-21T02:47:16;18.60;99.90
50947;DHT22;36955;47.416;7.716;2022-07-21T02:49:42;18.60;99.90
50947;DHT22;36955;47.416;7.716;2022-07-21T02:52:08;18.60;99.90
50947;DHT22;36955;47.416;7.716;2022-07-21T02:54:34;18.60;99.90
50947;DHT22;36955;47.416;7.716;2022-07-21T02:57:00;18.50;99.90
50947;DHT22;36955;47.416;7.716;2022-07-21T02:59:26;18.60;99.90
50947;DHT22;36955;47.416;7.716;2022-07-21T03:01:52;18.60;99.90
50947;DHT22;36955;47.416;7.716;2022-07-21T03:04:18;18.50;99.90
50947;DHT22;36955;47.416;7.716;2022-07-21T03:06:44;18.50;99.90
50947;DHT22;36955;47.416;7.716;2022-07-21T03:09:10;18.60;99.90
50947;DHT22;36955;47.416;7.716;2022-07-21T03:11:36;18.50;99.90
50947;DHT22;36955;47.416;7.716;2022-07-21T03:14:02;18.50;99.90
50947;DHT22;36955;47.416;7.716;2022-07-21T03:16:28;18.50;99.90
50947;DHT22;36955;47.416;7.716;2022-07-21T03:18:54;18.60;99.90
50947;DHT22;36955;47.416;7.716;2022-07-21T03:21:20;18.60;99.90
50947;DHT22;36955;47.416;7.716;2022-07-21T03:23:46;18.60;99.90
50947;DHT22;36955;47.416;7.716;2022-07-21T03:26:13;18.50;99.90
50947;DHT22;36955;47.416;7.716;2022-07-21T03:28:41;18.50;99.90
50947;DHT22;36955;47.416;7.716;2022-07-21T03:31:07;18.50;99.90
50947;DHT22;36955;47.416;7.716;2022-07-21T03:33:34;18.50;99.90
50947;DHT22;36955;47.416;7.716;2022-07-21T03:36:01;18.50;99.90
50947;DHT22;36955;47.416;7.716;2022-07-21T03:38:27;18.40;99.90
50947;DHT22;36955;47.416;7.716;2022-07-21T03:40:53;18.40;99.90
50947;DHT22;36955;47.416;7.716;2022-07-21T03:43:19;18.40;99.90
50947;DHT22;36955;47.416;7.716;2022-07-21T03:45:45;18.40;99.90
50947;DHT22;36955;47.416;7.716;2022-07-21T03:48:11;18.40;99.90
50947;DHT22;36955;47.416;7.716;2022-07-21T03:50:40;18.40;99.90
50947;DHT22;36955;47.416;7.716;2022-07-21T03:53:07;18.40;99.90
50947;DHT22;36955;47.416;7.716;2022-07-21T03:55:33;18.50;99.90
50947;DHT22;36955;47.416;7.716;2022-07-21T03:58:01;18.50;99.90
50947;DHT22;36955;47.416;7.716;2022-07-21T04:00:36;18.50;99.90
50947;DHT22;36955;47.416;7.716;2022-07-21T04:03:03;18.50;99.90
50947;DHT22;36955;47.416;7.716;2022-07-21T04:05:30;18.50;99.90
50947;DHT22;36955;47.416;7.716;2022-07-21T04:07:57;18.50;99.90
50947;DHT22;36955;47.416;7.716;2022-07-21T04:10:28;18.50;99.90
50947;DHT22;36955;47.416;7.716;2022-07-21T04:12:55;18.40;99.90
50947;DHT22;36955;47.416;7.716;2022-07-21T04:15:22;18.40;99.90
50947;DHT22;36955;47.416;7.716;2022-07-21T04:17:48;18.30;99.90
50947;DHT22;36955;47.416;7.716;2022-07-21T04:20:15;18.30;99.90
50947;DHT22;36955;47.416;7.716;2022-07-21T04:22:42;18.30;99.90
50947;DHT22;36955;47.416;7.716;2022-07-21T04:25:09;18.30;99.90
50947;DHT22;36955;47.416;7.716;2022-07-21T04:27:36;18.30;99.90
50947;DHT22;36955;47.416;7.716;2022-07-21T04:30:04;18.30;99.90
50947;DHT22;36955;47.416;7.716;2022-07-21T04:32:31;18.30;99.90
50947;DHT22;36955;47.416;7.716;2022-07-21T04:34:57;18.30;99.90
50947;DHT22;36955;47.416;7.716;2022-07-21T04:37:23;18.20;99.90
50947;DHT22;36955;47.416;7.716;2022-07-21T04:39:49;18.10;99.90
50947;DHT22;36955;47.416;7.716;2022-07-21T04:42:15;18.00;99.90
50947;DHT22;36955;47.416;7.716;2022-07-21T04:44:42;18.00;99.90
50947;DHT22;36955;47.416;7.716;2022-07-21T04:47:08;17.90;99.90
50947;DHT22;36955;47.416;7.716;2022-07-21T04:49:34;17.90;99.90
50947;DHT22;36955;47.416;7.716;2022-07-21T04:52:00;17.90;99.90
50947;DHT22;36955;47.416;7.716;2022-07-21T04:54:26;17.90;99.90
50947;DHT22;36955;47.416;7.716;2022-07-21T04:56:52;17.90;99.90
50947;DHT22;36955;47.416;7.716;2022-07-21T04:59:18;18.00;99.90
50947;DHT22;36955;47.416;7.716;2022-07-21T05:01:44;18.00;99.90
50947;DHT22;36955;47.416;7.716;2022-07-21T05:04:10;18.00;99.90
50947;DHT22;36955;47.416;7.716;2022-07-21T05:06:36;18.10;99.90
50947;DHT22;36955;47.416;7.716;2022-07-21T05:09:02;18.10;99.90
50947;DHT22;36955;47.416;7.716;2022-07-21T05:11:28;18.10;99.90
50947;DHT22;36955;47.416;7.716;2022-07-21T05:13:54;18.20;99.90
50947;DHT22;36955;47.416;7.716;2022-07-21T05:16:21;18.30;99.90
50947;DHT22;36955;47.416;7.716;2022-07-21T05:18:47;18.30;99.90
50947;DHT22;36955;47.416;7.716;2022-07-21T05:21:13;18.40;99.90
50947;DHT22;36955;47.416;7.716;2022-07-21T05:23:39;18.50;99.90
50947;DHT22;36955;47.416;7.716;2022-07-21T05:26:05;18.60;99.90
50947;DHT22;36955;47.416;7.716;2022-07-21T05:28:31;18.60;99.90
50947;DHT22;36955;47.416;7.716;2022-07-21T05:30:57;18.70;99.90
50947;DHT22;36955;47.416;7.716;2022-07-21T05:33:24;18.80;99.90
50947;DHT22;36955;47.416;7.716;2022-07-21T05:35:50;18.80;99.90
50947;DHT22;36955;47.416;7.716;2022-07-21T05:38:16;18.80;99.90
50947;DHT22;36955;47.416;7.716;2022-07-21T05:40:42;18.90;99.90
50947;DHT22;36955;47.416;7.716;2022-07-21T05:43:08;18.90;99.90
50947;DHT22;36955;47.416;7.716;2022-07-21T05:45:34;18.90;99.90
50947;DHT22;36955;47.416;7.716;2022-07-21T05:48:00;18.90;99.90
50947;DHT22;36955;47.416;7.716;2022-07-21T05:50:26;18.90;99.90
50947;DHT22;36955;47.416;7.716;2022-07-21T05:52:52;18.90;99.90
50947;DHT22;36955;47.416;7.716;2022-07-21T05:55:18;19.00;99.90
50947;DHT22;36955;47.416;7.716;2022-07-21T05:57:44;19.00;99.90
50947;DHT22;36955;47.416;7.716;2022-07-21T06:00:11;19.10;99.90
50947;DHT22;36955;47.416;7.716;2022-07-21T06:02:37;19.20;99.90
50947;DHT22;36955;47.416;7.716;2022-07-21T06:05:03;19.30;99.90
50947;DHT22;36955;47.416;7.716;2022-07-21T06:07:29;19.30;99.90
50947;DHT22;36955;47.416;7.716;2022-07-21T06:09:55;19.30;99.90
50947;DHT22;36955;47.416;7.716;2022-07-21T06:12:21;19.30;99.90
50947;DHT22;36955;47.416;7.716;2022-07-21T06:14:47;19.30;99.90
50947;DHT22;36955;47.416;7.716;2022-07-21T06:17:13;19.30;99.90
50947;DHT22;36955;47.416;7.716;2022-07-21T06:19:39;19.40;99.90
50947;DHT22;36955;47.416;7.716;2022-07-21T06:22:05;19.40;99.90
50947;DHT22;36955;47.416;7.716;2022-07-21T06:24:31;19.50;99.90
50947;DHT22;36955;47.416;7.716;2022-07-21T06:26:57;19.50;99.90
50947;DHT22;36955;47.416;7.716;2022-07-21T06:29:24;19.50;99.90
50947;DHT22;36955;47.416;7.716;2022-07-21T06:31:50;19.50;99.90
50947;DHT22;36955;47.416;7.716;2022-07-21T06:34:17;19.40;99.90
50947;DHT22;36955;47.416;7.716;2022-07-21T06:36:43;19.40;99.90
50947;DHT22;36955;47.416;7.716;2022-07-21T06:39:09;19.30;99.90
50947;DHT22;36955;47.416;7.716;2022-07-21T06:41:35;19.20;99.90
50947;DHT22;36955;47.416;7.716;2022-07-21T06:44:01;19.20;99.90
50947;DHT22;36955;47.416;7.716;2022-07-21T06:46:27;19.30;99.90
50947;DHT22;36955;47.416;7.716;2022-07-21T06:48:53;19.20;99.90
50947;DHT22;36955;47.416;7.716;2022-07-21T06:51:19;19.30;99.90
50947;DHT22;36955;47.416;7.716;2022-07-21T06:53:45;19.30;99.90
50947;DHT22;36955;47.416;7.716;2022-07-21T06:56:11;19.30;99.90
50947;DHT22;36955;47.416;7.716;2022-07-21T06:58:37;19.30;99.90
50947;DHT22;36955;47.416;7.716;2022-07-21T07:01:03;19.30;99.90
50947;DHT22;36955;47.416;7.716;2022-07-21T07:03:29;19.40;99.90
50947;DHT22;36955;47.416;7.716;2022-07-21T07:05:55;19.40;99.90
50947;DHT22;36955;47.416;7.716;2022-07-21T07:08:21;19.40;99.90
50947;DHT22;36955;47.416;7.716;2022-07-21T07:10:47;19.50;99.90
50947;DHT22;36955;47.416;7.716;2022-07-21T07:13:14;19.50;99.90
50947;DHT22;36955;47.416;7.716;2022-07-21T07:15:40;19.60;99.90
50947;DHT22;36955;47.416;7.716;2022-07-21T07:18:06;19.60;99.90
50947;DHT22;36955;47.416;7.716;2022-07-21T07:20:32;19.60;99.90
50947;DHT22;36955;47.416;7.716;2022-07-21T07:22:58;19.60;99.90
50947;DHT22;36955;47.416;7.716;2022-07-21T07:25:24;19.50;99.90
50947;DHT22;36955;47.416;7.716;2022-07-21T07:27:50;19.50;99.90
50947;DHT22;36955;47.416;7.716;2022-07-21T07:30:17;19.40;99.90
50947;DHT22;36955;47.416;7.716;2022-07-21T07:32:44;19.40;99.90
50947;DHT22;36955;47.416;7.716;2022-07-21T07:35:11;19.30;99.90
50947;DHT22;36955;47.416;7.716;2022-07-21T07:37:39;19.30;99.90
50947;DHT22;36955;47.416;7.716;2022-07-21T07:40:07;19.40;99.90
50947;DHT22;36955;47.416;7.716;2022-07-21T07:42:37;19.30;99.90
50947;DHT22;36955;47.416;7.716;2022-07-21T07:45:07;19.40;99.90
50947;DHT22;36955;47.416;7.716;2022-07-21T07:47:33;19.50;99.90
50947;DHT22;36955;47.416;7.716;2022-07-21T07:50:00;19.50;99.90
50947;DHT22;36955;47.416;7.716;2022-07-21T07:52:27;19.60;99.90
50947;DHT22;36955;47.416;7.716;2022-07-21T07:54:53;19.80;99.90
50947;DHT22;36955;47.416;7.716;2022-07-21T07:57:19;19.90;99.90
50947;DHT22;36955;47.416;7.716;2022-07-21T07:59:45;19.90;99.90
50947;DHT22;36955;47.416;7.716;2022-07-21T08:02:11;20.00;99.90
50947;DHT22;36955;47.416;7.716;2022-07-21T08:04:37;20.00;99.90
50947;DHT22;36955;47.416;7.716;2022-07-21T08:07:03;20.10;99.90
50947;DHT22;36955;47.416;7.716;2022-07-21T08:09:30;20.20;99.90
50947;DHT22;36955;47.416;7.716;2022-07-21T08:11:56;20.30;99.90
50947;DHT22;36955;47.416;7.716;2022-07-21T08:14:22;20.40;99.90
50947;DHT22;36955;47.416;7.716;2022-07-21T08:16:48;20.40;99.90
50947;DHT22;36955;47.416;7.716;2022-07-21T08:19:14;20.50;99.90
50947;DHT22;36955;47.416;7.716;2022-07-21T08:21:40;20.50;99.90
50947;DHT22;36955;47.416;7.716;2022-07-21T08:24:07;20.60;99.90
50947;DHT22;36955;47.416;7.716;2022-07-21T08:26:33;20.60;99.90
50947;DHT22;36955;47.416;7.716;2022-07-21T08:28:59;20.60;99.90
50947;DHT22;36955;47.416;7.716;2022-07-21T08:31:25;20.70;99.90
50947;DHT22;36955;47.416;7.716;2022-07-21T08:33:52;20.80;99.90
50947;DHT22;36955;47.416;7.716;2022-07-21T08:36:18;20.80;99.90
50947;DHT22;36955;47.416;7.716;2022-07-21T08:38:45;20.90;99.90
50947;DHT22;36955;47.416;7.716;2022-07-21T08:41:12;21.00;99.90
50947;DHT22;36955;47.416;7.716;2022-07-21T08:43:39;21.20;99.90
50947;DHT22;36955;47.416;7.716;2022-07-21T08:46:05;21.40;99.90
50947;DHT22;36955;47.416;7.716;2022-07-21T08:48:31;21.40;99.90
50947;DHT22;36955;47.416;7.716;2022-07-21T08:50:58;21.50;99.90
50947;DHT22;36955;47.416;7.716;2022-07-21T08:53:26;21.50;99.90
50947;DHT22;36955;47.416;7.716;2022-07-21T08:55:52;21.60;99.90
50947;DHT22;36955;47.416;7.716;2022-07-21T08:58:18;21.70;99.90
50947;DHT22;36955;47.416;7.716;2022-07-21T09:00:47;21.80;99.90
50947;DHT22;36955;47.416;7.716;2022-07-21T09:03:20;22.00;99.90
50947;DHT22;36955;47.416;7.716;2022-07-21T09:06:19;22.10;99.90
50947;DHT22;36955;47.416;7.716;2022-07-21T09:08:50;22.20;99.90
50947;DHT22;36955;47.416;7.716;2022-07-21T09:11:20;22.20;99.90
50947;DHT22;36955;47.416;7.716;2022-07-21T09:13:49;22.20;99.90
50947;DHT22;36955;47.416;7.716;2022-07-21T09:16:35;22.20;99.90
50947;DHT22;36955;47.416;7.716;2022-07-21T09:19:02;22.30;99.90
50947;DHT22;36955;47.416;7.716;2022-07-21T09:21:28;22.30;99.90
50947;DHT22;36955;47.416;7.716;2022-07-21T09:29:22;22.40;99.90
50947;DHT22;36955;47.416;7.716;2022-07-21T09:31:48;22.40;99.90
50947;DHT22;36955;47.416;7.716;2022-07-21T09:34:14;22.50;99.90
50947;DHT22;36955;47.416;7.716;2022-07-21T09:36:57;22.50;99.90
50947;DHT22;36955;47.416;7.716;2022-07-21T09:42:29;22.50;99.90
50947;DHT22;36955;47.416;7.716;2022-07-21T09:44:59;22.50;99.90
50947;DHT22;36955;47.416;7.716;2022-07-21T09:47:29;22.50;99.90
50947;DHT22;36955;47.416;7.716;2022-07-21T09:49:56;22.60;99.90
50947;DHT22;36955;47.416;7.716;2022-07-21T09:54:53;22.90;99.90
50947;DHT22;36955;47.416;7.716;2022-07-21T09:57:20;22.90;99.90
50947;DHT22;36955;47.416;7.716;2022-07-21T09:59:48;23.00;99.90
50947;DHT22;36955;47.416;7.716;2022-07-21T10:05:04;23.00;99.90
50947;DHT22;36955;47.416;7.716;2022-07-21T10:07:31;23.00;99.90
50947;DHT22;36955;47.416;7.716;2022-07-21T10:09:57;23.00;99.90
50947;DHT22;36955;47.416;7.716;2022-07-21T10:12:25;23.10;99.90
50947;DHT22;36955;47.416;7.716;2022-07-21T10:14:52;23.20;99.90
50947;DHT22;36955;47.416;7.716;2022-07-21T10:17:19;23.20;99.90
50947;DHT22;36955;47.416;7.716;2022-07-21T10:25:22;23.30;99.90
50947;DHT22;36955;47.416;7.716;2022-07-21T10:30:41;23.20;99.90
50947;DHT22;36955;47.416;7.716;2022-07-21T10:33:08;23.20;99.90
50947;DHT22;36955;47.416;7.716;2022-07-21T10:35:35;23.20;99.90
50947;DHT22;36955;47.416;7.716;2022-07-21T10:38:04;23.10;99.90
50947;DHT22;36955;47.416;7.716;2022-07-21T10:45:39;23.00;99.90
50947;DHT22;36955;47.416;7.716;2022-07-21T10:48:08;23.00;99.90
50947;DHT22;36955;47.416;7.716;2022-07-21T10:50:37;23.10;99.90
50947;DHT22;36955;47.416;7.716;2022-07-21T10:53:15;23.20;99.90
50947;DHT22;36955;47.416;7.716;2022-07-21T10:55:53;23.40;99.90
50947;DHT22;36955;47.416;7.716;2022-07-21T10:58:30;23.60;99.90
50947;DHT22;36955;47.416;7.716;2022-07-21T11:08:40;23.90;99.90
50947;DHT22;36955;47.416;7.716;2022-07-21T11:11:27;23.80;99.90
50947;DHT22;36955;47.416;7.716;2022-07-21T11:14:10;23.80;99.90
50947;DHT22;36955;47.416;7.716;2022-07-21T11:19:44;23.60;99.90
50947;DHT22;36955;47.416;7.716;2022-07-21T11:22:27;23.60;99.90
50947;DHT22;36955;47.416;7.716;2022-07-21T11:25:00;23.70;99.90
50947;DHT22;36955;47.416;7.716;2022-07-21T11:27:29;23.80;99.90
50947;DHT22;36955;47.416;7.716;2022-07-21T11:29:59;23.70;99.90
50947;DHT22;36955;47.416;7.716;2022-07-21T11:32:26;23.60;99.90
50947;DHT22;36955;47.416;7.716;2022-07-21T11:34:57;23.60;99.90
50947;DHT22;36955;47.416;7.716;2022-07-21T11:37:36;23.70;99.90
50947;DHT22;36955;47.416;7.716;2022-07-21T11:42:31;24.00;99.90
50947;DHT22;36955;47.416;7.716;2022-07-21T11:44:58;24.00;99.90
50947;DHT22;36955;47.416;7.716;2022-07-21T11:47:24;24.10;99.90
50947;DHT22;36955;47.416;7.716;2022-07-21T11:49:56;24.10;99.90
50947;DHT22;36955;47.416;7.716;2022-07-21T11:52:27;24.30;99.90
50947;DHT22;36955;47.416;7.716;2022-07-21T11:54:55;24.30;99.90
50947;DHT22;36955;47.416;7.716;2022-07-21T11:57:22;24.50;99.90
50947;DHT22;36955;47.416;7.716;2022-07-21T11:59:49;24.50;99.90
50947;DHT22;36955;47.416;7.716;2022-07-21T12:02:24;24.50;99.90
50947;DHT22;36955;47.416;7.716;2022-07-21T12:04:59;24.50;99.90
50947;DHT22;36955;47.416;7.716;2022-07-21T12:07:45;24.50;99.90
50947;DHT22;36955;47.416;7.716;2022-07-21T12:10:13;24.50;99.90
50947;DHT22;36955;47.416;7.716;2022-07-21T12:12:45;24.50;99.90
50947;DHT22;36955;47.416;7.716;2022-07-21T12:15:15;24.70;99.90
50947;DHT22;36955;47.416;7.716;2022-07-21T12:17:53;24.80;99.90
50947;DHT22;36955;47.416;7.716;2022-07-21T12:20:37;25.00;99.90
50947;DHT22;36955;47.416;7.716;2022-07-21T12:23:19;24.90;99.90
50947;DHT22;36955;47.416;7.716;2022-07-21T12:25:46;25.00;99.90
50947;DHT22;36955;47.416;7.716;2022-07-21T12:28:12;25.00;99.90
50947;DHT22;36955;47.416;7.716;2022-07-21T12:30:41;24.90;99.90
50947;DHT22;36955;47.416;7.716;2022-07-21T12:33:14;24.80;99.90
50947;DHT22;36955;47.416;7.716;2022-07-21T12:35:43;24.60;99.90
50947;DHT22;36955;47.416;7.716;2022-07-21T12:38:11;24.70;99.90
50947;DHT22;36955;47.416;7.716;2022-07-21T12:40:41;24.80;99.90
50947;DHT22;36955;47.416;7.716;2022-07-21T12:45:51;25.00;99.90
50947;DHT22;36955;47.416;7.716;2022-07-21T12:48:26;25.00;99.90
50947;DHT22;36955;47.416;7.716;2022-07-21T12:51:12;25.10;99.90
50947;DHT22;36955;47.416;7.716;2022-07-21T12:53:50;25.20;99.90
50947;DHT22;36955;47.416;7.716;2022-07-21T12:56:25;25.40;99.90
50947;DHT22;36955;47.416;7.716;2022-07-21T12:58:52;25.60;99.90
50947;DHT22;36955;47.416;7.716;2022-07-21T13:01:19;25.70;99.90
50947;DHT22;36955;47.416;7.716;2022-07-21T13:03:46;25.70;99.90
50947;DHT22;36955;47.416;7.716;2022-07-21T13:06:13;25.70;99.90
50947;DHT22;36955;47.416;7.716;2022-07-21T13:08:40;25.80;99.90
50947;DHT22;36955;47.416;7.716;2022-07-21T13:11:08;25.90;99.90
50947;DHT22;36955;47.416;7.716;2022-07-21T13:13:34;26.10;99.90
50947;DHT22;36955;47.416;7.716;2022-07-21T13:16:00;26.20;99.90
50947;DHT22;36955;47.416;7.716;2022-07-21T13:18:26;26.20;99.90
50947;DHT22;36955;47.416;7.716;2022-07-21T13:20:53;26.10;99.90
50947;DHT22;36955;47.416;7.716;2022-07-21T13:23:19;26.00;99.90
50947;DHT22;36955;47.416;7.716;2022-07-21T13:25:46;25.70;99.90
50947;DHT22;36955;47.416;7.716;2022-07-21T13:28:12;25.60;99.90
50947;DHT22;36955;47.416;7.716;2022-07-21T13:30:38;25.70;99.90
50947;DHT22;36955;47.416;7.716;2022-07-21T13:33:05;25.70;99.90
50947;DHT22;36955;47.416;7.716;2022-07-21T13:35:32;25.90;99.90
50947;DHT22;36955;47.416;7.716;2022-07-21T13:37:59;26.30;99.90
50947;DHT22;36955;47.416;7.716;2022-07-21T13:40:26;26.60;99.90
50947;DHT22;36955;47.416;7.716;2022-07-21T13:42:53;26.70;99.90
50947;DHT22;36955;47.416;7.716;2022-07-21T13:45:20;26.70;99.90
50947;DHT22;36955;47.416;7.716;2022-07-21T13:47:46;26.80;99.90
50947;DHT22;36955;47.416;7.716;2022-07-21T13:50:12;26.80;99.90
50947;DHT22;36955;47.416;7.716;2022-07-21T13:52:38;27.10;99.90
50947;DHT22;36955;47.416;7.716;2022-07-21T13:55:04;27.30;99.90
50947;DHT22;36955;47.416;7.716;2022-07-21T13:57:30;27.30;99.90
50947;DHT22;36955;47.416;7.716;2022-07-21T13:59:56;27.60;99.90
50947;DHT22;36955;47.416;7.716;2022-07-21T14:02:23;27.70;99.90
50947;DHT22;36955;47.416;7.716;2022-07-21T14:04:49;27.60;99.90
50947;DHT22;36955;47.416;7.716;2022-07-21T14:07:15;27.40;99.90
50947;DHT22;36955;47.416;7.716;2022-07-21T14:09:41;27.20;99.90
50947;DHT22;36955;47.416;7.716;2022-07-21T14:12:08;27.00;99.90
50947;DHT22;36955;47.416;7.716;2022-07-21T14:14:34;26.80;99.90
50947;DHT22;36955;47.416;7.716;2022-07-21T14:17:00;26.40;99.90
50947;DHT22;36955;47.416;7.716;2022-07-21T14:19:26;26.30;99.90
50947;DHT22;36955;47.416;7.716;2022-07-21T14:21:52;26.30;99.90
50947;DHT22;36955;47.416;7.716;2022-07-21T14:24:18;26.40;99.90
50947;DHT22;36955;47.416;7.716;2022-07-21T14:26:44;26.70;99.90
50947;DHT22;36955;47.416;7.716;2022-07-21T14:29:10;27.00;99.90
50947;DHT22;36955;47.416;7.716;2022-07-21T14:31:36;27.50;99.90
50947;DHT22;36955;47.416;7.716;2022-07-21T14:34:02;27.70;99.90
50947;DHT22;36955;47.416;7.716;2022-07-21T14:36:28;27.80;99.90
50947;DHT22;36955;47.416;7.716;2022-07-21T14:38:54;27.70;99.90
50947;DHT22;36955;47.416;7.716;2022-07-21T14:41:20;27.70;99.90
50947;DHT22;36955;47.416;7.716;2022-07-21T14:43:47;27.90;99.90
50947;DHT22;36955;47.416;7.716;2022-07-21T14:46:13;28.20;99.90
50947;DHT22;36955;47.416;7.716;2022-07-21T14:48:39;28.20;99.90
50947;DHT22;36955;47.416;7.716;2022-07-21T14:51:05;28.10;99.90
50947;DHT22;36955;47.416;7.716;2022-07-21T14:53:31;27.90;99.90
50947;DHT22;36955;47.416;7.716;2022-07-21T14:55:57;27.80;99.90
50947;DHT22;36955;47.416;7.716;2022-07-21T14:58:23;27.80;99.90
50947;DHT22;36955;47.416;7.716;2022-07-21T15:00:49;27.90;99.90
50947;DHT22;36955;47.416;7.716;2022-07-21T15:03:15;28.10;99.90
50947;DHT22;36955;47.416;7.716;2022-07-21T15:05:42;28.30;99.90
50947;DHT22;36955;47.416;7.716;2022-07-21T15:08:08;28.50;99.90
50947;DHT22;36955;47.416;7.716;2022-07-21T15:10:34;28.80;99.90
50947;DHT22;36955;47.416;7.716;2022-07-21T15:13:00;29.10;99.90
50947;DHT22;36955;47.416;7.716;2022-07-21T15:15:26;29.20;99.90
50947;DHT22;36955;47.416;7.716;2022-07-21T15:17:52;29.30;99.90
50947;DHT22;36955;47.416;7.716;2022-07-21T15:20:18;29.20;99.90
50947;DHT22;36955;47.416;7.716;2022-07-21T15:22:44;29.20;99.90
50947;DHT22;36955;47.416;7.716;2022-07-21T15:25:10;29.10;99.90
50947;DHT22;36955;47.416;7.716;2022-07-21T15:27:41;29.00;99.90
50947;DHT22;36955;47.416;7.716;2022-07-21T15:30:10;29.10;99.90
50947;DHT22;36955;47.416;7.716;2022-07-21T15:32:36;29.20;99.90
50947;DHT22;36955;47.416;7.716;2022-07-21T15:35:02;29.10;99.90
50947;DHT22;36955;47.416;7.716;2022-07-21T15:37:28;29.10;99.90
50947;DHT22;36955;47.416;7.716;2022-07-21T15:39:55;29.10;99.90
50947;DHT22;36955;47.416;7.716;2022-07-21T15:42:21;29.30;99.90
50947;DHT22;36955;47.416;7.716;2022-07-21T15:44:47;29.40;99.90
50947;DHT22;36955;47.416;7.716;2022-07-21T15:47:13;29.40;99.90
50947;DHT22;36955;47.416;7.716;2022-07-21T15:49:39;29.40;99.90
50947;DHT22;36955;47.416;7.716;2022-07-21T15:52:05;29.40;99.90
50947;DHT22;36955;47.416;7.716;2022-07-21T15:54:31;29.20;99.90
50947;DHT22;36955;47.416;7.716;2022-07-21T15:56:59;29.00;99.90
50947;DHT22;36955;47.416;7.716;2022-07-21T15:59:25;28.90;99.90
50947;DHT22;36955;47.416;7.716;2022-07-21T16:01:51;28.80;99.90
50947;DHT22;36955;47.416;7.716;2022-07-21T16:04:17;28.90;99.90
50947;DHT22;36955;47.416;7.716;2022-07-21T16:06:43;28.80;99.90
50947;DHT22;36955;47.416;7.716;2022-07-21T16:09:09;28.90;99.90
50947;DHT22;36955;47.416;7.716;2022-07-21T16:11:35;28.80;99.90
50947;DHT22;36955;47.416;7.716;2022-07-21T16:14:01;28.90;99.90